Terminal Aerodrome Forecast
Issued by NWS Pueblo, CO

Home | Current Version | Previous Version | Text Only | Print | Product List | Glossary On
Versions: 1 2 3 4 5 6 7 8 9 10 11 12 13 14 15 16 17 18 19 20 21 22 23 24 25 26 27 28
000
FTUS45 KPUB 250523
TAFALS
TAF
KALS 250523Z 2506/2606 14008KT P6SM BKN150
     FM251600 22011KT P6SM BKN080
     FM252000 23015KT P6SM VCSH BKN080
     FM252200 27015G25KT P6SM VCSH BKN080
     FM260200 33010KT P6SM VCSH BKN080
     FM260400 36008KT P6SM BKN080=

USA.gov is the U.S. government's official web portal to all federal, state and local government web resources and services.